createdAt,value
2018-10-17T00:00:44.359Z,98.96
2018-10-17T00:01:44.349Z,99.24
2018-10-17T00:02:44.329Z,99.91
2018-10-17T00:03:44.315Z,99.99
2018-10-17T00:04:44.301Z,99.99
2018-10-17T00:05:44.285Z,99.99
2018-10-17T00:06:44.274Z,99.99
2018-10-17T00:07:44.258Z,99.99
2018-10-17T00:08:44.249Z,99.99
2018-10-17T00:09:44.230Z,99.99
2018-10-17T00:10:44.217Z,99.99
2018-10-17T00:11:44.208Z,99.99
2018-10-17T00:12:44.193Z,99.99
2018-10-17T00:13:44.174Z,99.99
2018-10-17T00:14:44.182Z,99.99
2018-10-17T00:15:44.150Z,99.99
2018-10-17T00:16:44.137Z,99.99
2018-10-17T00:17:44.124Z,99.99
2018-10-17T00:18:44.104Z,99.91
2018-10-17T00:19:44.090Z,99.99
2018-10-17T00:20:44.081Z,99.82
2018-10-17T00:21:44.063Z,99.99
2018-10-17T00:22:44.052Z,99.05
2018-10-17T00:23:44.034Z,99.34
2018-10-17T00:24:44.028Z,99.24
2018-10-17T00:25:44.325Z,98.96
2018-10-17T00:26:43.994Z,99.05
2018-10-17T00:27:43.978Z,99.05
2018-10-17T00:28:43.965Z,98.67
2018-10-17T00:29:43.952Z,98.86
2018-10-17T00:30:43.937Z,98.67
2018-10-17T00:31:43.925Z,99.05
2018-10-17T00:32:43.916Z,98.86
2018-10-17T00:33:43.908Z,99.05
2018-10-17T00:34:43.880Z,99.05
2018-10-17T00:35:43.871Z,98.96
2018-10-17T00:36:43.854Z,98.86
2018-10-17T00:37:43.837Z,99.15
2018-10-17T00:38:43.850Z,99.15
2018-10-17T00:39:43.810Z,99.05
2018-10-17T00:40:43.798Z,99.24
2018-10-17T00:41:43.782Z,98.77
2018-10-17T00:42:43.768Z,98.86
2018-10-17T00:43:43.753Z,98.67
2018-10-17T00:44:43.741Z,98.28
2018-10-17T00:45:43.728Z,99.05
2018-10-17T00:46:43.712Z,98.77
2018-10-17T00:47:43.696Z,98.81
2018-10-17T00:48:43.686Z,99.39
2018-10-17T00:49:43.669Z,99.10
2018-10-17T00:50:43.663Z,99.77
2018-10-17T00:51:43.642Z,99.87
2018-10-17T00:52:43.629Z,99.87
2018-10-17T00:53:43.616Z,99.87
2018-10-17T00:54:43.600Z,99.77
2018-10-17T00:55:43.585Z,99.87
2018-10-17T00:56:43.571Z,99.77
2018-10-17T00:57:43.556Z,99.77
2018-10-17T00:58:43.541Z,99.58
2018-10-17T00:59:43.544Z,99.77
2018-10-17T01:00:43.517Z,99.99
2018-10-17T01:01:43.502Z,99.99
2018-10-17T01:02:43.486Z,99.99
2018-10-17T01:03:43.473Z,99.99
2018-10-17T01:04:43.461Z,99.99
2018-10-17T01:05:43.444Z,99.99
2018-10-17T01:06:43.446Z,99.99
2018-10-17T01:07:43.413Z,99.99
2018-10-17T01:08:43.399Z,99.99
2018-10-17T01:09:43.386Z,99.99
2018-10-17T01:10:43.375Z,99.99
2018-10-17T01:11:43.360Z,99.99
2018-10-17T01:12:43.341Z,99.99
2018-10-17T01:13:43.332Z,99.99
2018-10-17T01:14:43.315Z,99.99
2018-10-17T01:15:43.300Z,99.99
2018-10-17T01:16:43.288Z,99.99
2018-10-17T01:17:43.270Z,99.99
2018-10-17T01:18:43.256Z,99.96
2018-10-17T01:19:43.243Z,99.91
2018-10-17T01:20:43.229Z,99.99
2018-10-17T01:21:43.216Z,99.99
2018-10-17T01:22:43.201Z,99.99
2018-10-17T01:23:43.189Z,99.99
2018-10-17T01:24:43.184Z,99.99
2018-10-17T01:25:43.157Z,99.99
2018-10-17T01:26:43.148Z,99.99
2018-10-17T01:27:43.127Z,99.99
2018-10-17T01:28:43.121Z,99.99
2018-10-17T01:29:43.103Z,99.99
2018-10-17T01:30:43.086Z,99.99
2018-10-17T01:31:43.071Z,99.99
2018-10-17T01:32:43.055Z,99.99
2018-10-17T01:33:43.046Z,99.99
2018-10-17T01:34:43.026Z,99.99
2018-10-17T01:35:43.012Z,99.99
2018-10-17T01:36:43.001Z,99.99
2018-10-17T01:37:42.984Z,99.99
2018-10-17T01:38:42.969Z,99.99
2018-10-17T01:39:42.955Z,99.99
2018-10-17T01:40:42.941Z,99.99
2018-10-17T01:41:42.931Z,99.99
2018-10-17T01:42:42.920Z,99.99
2018-10-17T01:43:42.897Z,99.99
2018-10-17T01:44:42.883Z,99.99
2018-10-17T01:45:42.869Z,99.96
2018-10-17T01:46:42.853Z,99.99
2018-10-17T01:47:42.840Z,99.99
2018-10-17T01:48:42.825Z,99.99
2018-10-17T01:49:42.809Z,99.99
2018-10-17T01:50:42.797Z,99.99
2018-10-17T01:51:42.781Z,99.99
2018-10-17T01:52:42.767Z,99.99
2018-10-17T01:53:42.753Z,99.99
2018-10-17T01:54:42.740Z,99.99
2018-10-17T01:55:42.724Z,99.99
2018-10-17T01:56:42.713Z,99.99
2018-10-17T01:57:42.695Z,99.99
2018-10-17T01:58:42.680Z,99.99
2018-10-17T01:59:42.666Z,99.99
2018-10-17T02:00:42.652Z,99.99
2018-10-17T02:01:42.638Z,99.99
2018-10-17T02:02:42.621Z,99.99
2018-10-17T02:03:42.609Z,99.99
2018-10-17T02:04:42.597Z,99.99
2018-10-17T02:05:42.579Z,99.99
2018-10-17T02:06:42.564Z,99.99
2018-10-17T02:07:42.555Z,99.99
2018-10-17T02:08:42.539Z,99.99
2018-10-17T02:09:42.524Z,99.99
2018-10-17T02:10:42.506Z,99.99
2018-10-17T02:11:42.490Z,99.99
2018-10-17T02:12:42.476Z,99.99
2018-10-17T02:13:42.461Z,99.99
2018-10-17T02:14:42.453Z,99.99
2018-10-17T02:15:42.438Z,99.99
2018-10-17T02:16:42.418Z,99.99
2018-10-17T02:17:42.400Z,99.99
2018-10-17T02:18:42.397Z,99.99
2018-10-17T02:19:42.379Z,99.99
2018-10-17T02:20:42.358Z,99.99
2018-10-17T02:21:42.342Z,99.99
2018-10-17T02:22:42.326Z,99.99
2018-10-17T02:23:42.312Z,99.99
2018-10-17T02:24:42.297Z,99.99
2018-10-17T02:25:42.287Z,99.99
2018-10-17T02:26:42.277Z,99.99
2018-10-17T02:27:42.256Z,99.99
2018-10-17T02:28:42.240Z,99.99
2018-10-17T02:29:42.226Z,99.99
2018-10-17T02:30:42.209Z,99.99
2018-10-17T02:31:42.205Z,99.99
2018-10-17T02:32:42.179Z,99.99
2018-10-17T02:33:42.165Z,99.99
2018-10-17T02:34:42.150Z,99.99
2018-10-17T02:35:42.135Z,99.99
2018-10-17T02:36:42.123Z,99.99
2018-10-17T02:37:42.111Z,99.99
2018-10-17T02:38:42.098Z,99.99
2018-10-17T02:39:42.148Z,99.99
2018-10-17T02:40:42.062Z,99.99
2018-10-17T02:41:42.051Z,99.99
2018-10-17T02:42:42.031Z,99.99
2018-10-17T02:43:42.021Z,99.99
2018-10-17T02:44:42.002Z,99.99
2018-10-17T02:45:41.986Z,99.99
2018-10-17T02:46:41.974Z,99.99
2018-10-17T02:47:41.956Z,99.99
2018-10-17T02:48:41.941Z,99.99
2018-10-17T02:49:41.924Z,99.99
2018-10-17T02:50:41.922Z,99.99
2018-10-17T02:51:41.898Z,99.99
2018-10-17T02:52:41.885Z,99.99
2018-10-17T02:53:41.870Z,99.99
2018-10-17T02:54:41.853Z,99.99
2018-10-17T02:55:41.838Z,99.99
2018-10-17T02:56:41.823Z,99.99
2018-10-17T02:57:41.807Z,99.99
2018-10-17T02:58:41.792Z,99.99
2018-10-17T02:59:41.783Z,99.99
2018-10-17T03:00:41.773Z,99.99
2018-10-17T03:01:41.749Z,99.99
2018-10-17T03:02:41.735Z,99.99
2018-10-17T03:03:41.718Z,99.99
2018-10-17T03:04:41.702Z,99.99
2018-10-17T03:05:41.690Z,99.99
2018-10-17T03:06:41.675Z,99.99
2018-10-17T03:07:41.671Z,99.99
2018-10-17T03:08:41.648Z,99.99
2018-10-17T03:09:41.631Z,99.99
2018-10-17T03:10:41.615Z,99.99
2018-10-17T03:11:41.600Z,99.99
2018-10-17T03:12:41.590Z,99.99
2018-10-17T03:13:41.569Z,99.99
2018-10-17T03:14:41.559Z,99.99
2018-10-17T03:15:41.540Z,99.99
2018-10-17T03:16:41.525Z,99.99
2018-10-17T03:17:41.509Z,99.99
2018-10-17T03:18:41.494Z,99.99
2018-10-17T03:19:41.479Z,99.99
2018-10-17T03:20:41.466Z,99.99
2018-10-17T03:21:41.451Z,99.99
2018-10-17T03:22:41.436Z,99.99
2018-10-17T03:23:41.421Z,99.99
2018-10-17T03:24:41.410Z,99.99
2018-10-17T03:25:41.396Z,99.99
2018-10-17T03:26:41.375Z,99.99
2018-10-17T03:27:41.419Z,99.99
2018-10-17T03:28:41.345Z,99.99
2018-10-17T03:29:41.331Z,99.99
2018-10-17T03:30:41.313Z,99.99
2018-10-17T03:31:41.300Z,99.99
2018-10-17T03:32:41.289Z,99.99
2018-10-17T03:33:41.270Z,99.99
2018-10-17T03:34:41.262Z,99.99
2018-10-17T03:35:41.287Z,99.99
2018-10-17T03:36:41.225Z,99.99
2018-10-17T03:37:41.211Z,99.99
2018-10-17T03:38:41.195Z,99.99
2018-10-17T03:39:41.204Z,99.99
2018-10-17T03:40:41.166Z,99.99
2018-10-17T03:41:41.149Z,99.99
2018-10-17T03:42:41.140Z,99.99
2018-10-17T03:43:41.127Z,99.99
2018-10-17T03:44:41.105Z,99.99
2018-10-17T03:45:41.091Z,99.99
2018-10-17T03:46:41.073Z,99.99
2018-10-17T03:47:41.062Z,99.99
2018-10-17T03:48:41.054Z,99.99
2018-10-17T03:49:41.037Z,99.99
2018-10-17T03:50:41.013Z,99.99
2018-10-17T03:51:40.997Z,99.99
2018-10-17T03:52:40.985Z,99.99
2018-10-17T03:53:40.968Z,99.99
2018-10-17T03:54:40.951Z,99.99
2018-10-17T03:55:40.939Z,99.99
2018-10-17T03:56:40.927Z,99.99
2018-10-17T03:57:40.912Z,99.99
2018-10-17T03:58:40.894Z,99.99
2018-10-17T03:59:41.105Z,99.99
2018-10-17T04:00:40.870Z,99.99
2018-10-17T04:01:40.850Z,99.99
2018-10-17T04:02:40.830Z,99.99
2018-10-17T04:03:40.816Z,99.99
2018-10-17T04:04:40.802Z,99.99
2018-10-17T04:05:40.786Z,99.99
2018-10-17T04:06:40.770Z,99.99
2018-10-17T04:07:40.756Z,99.99
2018-10-17T04:08:40.741Z,99.99
2018-10-17T04:09:40.725Z,99.99
2018-10-17T04:10:40.713Z,99.99
2018-10-17T04:11:40.694Z,99.99
2018-10-17T04:12:40.680Z,99.99
2018-10-17T04:13:40.666Z,99.99
2018-10-17T04:14:40.648Z,99.99
2018-10-17T04:15:40.632Z,99.99
2018-10-17T04:16:40.618Z,99.99
2018-10-17T04:17:40.600Z,99.99
2018-10-17T04:18:40.594Z,99.99
2018-10-17T04:19:40.574Z,99.99
2018-10-17T04:20:40.568Z,99.99
2018-10-17T04:21:40.543Z,99.99
2018-10-17T04:22:40.649Z,99.99
2018-10-17T04:23:40.511Z,99.99
2018-10-17T04:24:40.502Z,99.99
2018-10-17T04:25:40.483Z,99.99
2018-10-17T04:26:40.465Z,99.99
2018-10-17T04:27:40.450Z,99.99
2018-10-17T04:28:40.435Z,99.99
2018-10-17T04:29:40.417Z,99.99
2018-10-17T04:30:40.409Z,99.99
2018-10-17T04:31:40.389Z,99.99
2018-10-17T04:32:40.373Z,99.99
2018-10-17T04:33:40.365Z,99.99
2018-10-17T04:34:40.344Z,99.99
2018-10-17T04:35:40.327Z,99.99
2018-10-17T04:36:40.316Z,99.99
2018-10-17T04:37:40.297Z,99.99
2018-10-17T04:38:40.290Z,99.99
2018-10-17T04:39:40.266Z,99.99
2018-10-17T04:40:40.256Z,99.99
2018-10-17T04:41:40.234Z,99.99
2018-10-17T04:42:40.223Z,99.99
2018-10-17T04:43:40.208Z,99.99
2018-10-17T04:44:40.193Z,99.99
2018-10-17T04:45:40.174Z,99.99
2018-10-17T04:46:40.199Z,99.99
2018-10-17T04:47:40.296Z,99.99
2018-10-17T04:48:40.143Z,99.99
2018-10-17T04:49:40.112Z,99.99
2018-10-17T04:50:40.104Z,99.99
2018-10-17T04:51:40.086Z,99.99
2018-10-17T04:52:40.070Z,99.99
2018-10-17T04:53:40.053Z,99.99
2018-10-17T04:54:40.037Z,99.99
2018-10-17T04:55:40.023Z,99.99
2018-10-17T04:56:40.009Z,99.99
2018-10-17T04:57:39.990Z,99.99
2018-10-17T04:58:39.975Z,99.99
2018-10-17T04:59:39.962Z,99.99
2018-10-17T05:00:39.942Z,99.99
2018-10-17T05:01:39.927Z,99.99
2018-10-17T05:02:39.911Z,99.99
2018-10-17T05:03:39.895Z,99.99
2018-10-17T05:04:39.913Z,99.99
2018-10-17T05:05:39.869Z,99.99
2018-10-17T05:06:39.916Z,99.99
2018-10-17T05:07:39.843Z,99.99
2018-10-17T05:08:39.823Z,99.99
2018-10-17T05:09:39.803Z,99.99
2018-10-17T05:10:39.788Z,99.99
2018-10-17T05:11:39.773Z,99.99
2018-10-17T05:12:39.762Z,99.99
2018-10-17T05:13:39.742Z,99.99
2018-10-17T05:14:39.730Z,99.99
2018-10-17T05:15:39.713Z,99.99
2018-10-17T05:16:39.696Z,99.99
2018-10-17T05:17:39.689Z,99.99
2018-10-17T05:18:39.664Z,99.99
2018-10-17T05:19:39.650Z,99.99
2018-10-17T05:20:39.634Z,99.99
2018-10-17T05:21:39.621Z,99.99
2018-10-17T05:22:39.604Z,99.99
2018-10-17T05:23:39.585Z,99.99
2018-10-17T05:24:39.579Z,99.99
2018-10-17T05:25:39.555Z,99.99
2018-10-17T05:26:39.543Z,99.99
2018-10-17T05:27:39.523Z,99.99
2018-10-17T05:28:39.518Z,99.99
2018-10-17T05:29:39.497Z,99.99
2018-10-17T05:30:39.476Z,99.99
2018-10-17T05:31:39.460Z,99.99
2018-10-17T05:32:39.446Z,99.99
2018-10-17T05:33:39.429Z,99.99
2018-10-17T05:34:39.412Z,99.99
2018-10-17T05:35:39.397Z,99.99
2018-10-17T05:36:39.388Z,99.99
2018-10-17T05:37:39.469Z,99.99
2018-10-17T05:38:39.352Z,99.99
2018-10-17T05:39:39.338Z,99.99
2018-10-17T05:40:39.322Z,99.99
2018-10-17T05:41:39.307Z,99.99
2018-10-17T05:42:39.289Z,99.99
2018-10-17T05:43:39.277Z,99.99
2018-10-17T05:44:39.257Z,99.99
2018-10-17T05:45:39.241Z,99.99
2018-10-17T05:46:39.230Z,99.99
2018-10-17T05:47:39.219Z,99.99
2018-10-17T05:48:39.207Z,99.99
2018-10-17T05:49:39.183Z,99.99
2018-10-17T05:50:39.165Z,99.99
2018-10-17T05:51:39.147Z,99.99
2018-10-17T05:52:39.133Z,99.99
2018-10-17T05:53:39.115Z,99.99
2018-10-17T05:54:39.109Z,99.99
2018-10-17T05:55:39.174Z,99.99
2018-10-17T05:56:39.071Z,99.99
2018-10-17T05:57:39.055Z,99.99
2018-10-17T05:58:39.043Z,99.99
2018-10-17T05:59:39.024Z,99.99
2018-10-17T06:00:39.011Z,99.99
2018-10-17T06:01:39.193Z,99.99
2018-10-17T06:02:39.042Z,99.99
2018-10-17T06:03:38.963Z,99.99
2018-10-17T06:04:38.956Z,99.99
2018-10-17T06:05:38.932Z,99.99
2018-10-17T06:06:38.917Z,99.99
2018-10-17T06:07:38.899Z,99.99
2018-10-17T06:08:38.886Z,99.99
2018-10-17T06:09:38.871Z,99.99
2018-10-17T06:10:38.862Z,99.99
2018-10-17T06:11:38.846Z,99.99
2018-10-17T06:12:38.831Z,99.99
2018-10-17T06:13:38.807Z,99.99
2018-10-17T06:14:38.797Z,99.99
2018-10-17T06:15:38.776Z,99.99
2018-10-17T06:16:38.829Z,99.99
2018-10-17T06:17:38.745Z,99.99
2018-10-17T06:18:38.728Z,99.99
2018-10-17T06:19:38.718Z,99.99
2018-10-17T06:20:38.697Z,99.99
2018-10-17T06:21:38.683Z,99.99
2018-10-17T06:22:38.668Z,99.99
2018-10-17T06:23:38.652Z,99.99
2018-10-17T06:24:38.645Z,99.99
2018-10-17T06:25:38.625Z,99.99
2018-10-17T06:26:38.606Z,99.99
2018-10-17T06:27:38.593Z,99.99
2018-10-17T06:28:38.575Z,99.99
2018-10-17T06:29:38.560Z,99.99
2018-10-17T06:30:38.559Z,99.99
2018-10-17T06:31:38.554Z,99.99
2018-10-17T06:32:38.518Z,99.99
2018-10-17T06:33:38.501Z,99.99
2018-10-17T06:34:38.521Z,99.99
2018-10-17T06:35:38.471Z,99.99
2018-10-17T06:36:38.457Z,99.99
2018-10-17T06:37:38.441Z,99.99
2018-10-17T06:38:38.427Z,99.99
2018-10-17T06:39:38.415Z,99.99
2018-10-17T06:40:38.455Z,99.99
2018-10-17T06:41:38.386Z,99.99
2018-10-17T06:42:38.374Z,99.99
2018-10-17T06:43:38.404Z,99.99
2018-10-17T06:44:38.346Z,99.99
2018-10-17T06:45:38.356Z,99.99
2018-10-17T06:46:38.321Z,99.99
2018-10-17T06:47:38.304Z,99.99
2018-10-17T06:48:38.293Z,99.99
2018-10-17T06:49:38.282Z,99.99
2018-10-17T06:50:38.264Z,99.99
2018-10-17T06:51:38.253Z,99.99
2018-10-17T06:52:38.243Z,99.99
2018-10-17T06:53:38.264Z,99.99
2018-10-17T06:54:38.218Z,99.99
2018-10-17T06:55:38.194Z,99.99
2018-10-17T06:56:38.188Z,99.99
2018-10-17T06:57:38.170Z,99.99
2018-10-17T06:58:38.157Z,99.96
2018-10-17T06:59:38.150Z,98.72
2018-10-17T07:00:38.133Z,98.28
2018-10-17T07:01:38.124Z,96.89
2018-10-17T07:02:38.109Z,95.26
2018-10-17T07:03:38.094Z,93.73
2018-10-17T07:04:38.081Z,93.54
2018-10-17T07:05:38.074Z,92.53
2018-10-17T07:06:38.072Z,91.23
2018-10-17T07:07:38.047Z,89.79
2018-10-17T07:08:38.171Z,90.42
2018-10-17T07:09:38.036Z,92.00
2018-10-17T07:10:38.022Z,93.73
2018-10-17T07:11:38.009Z,94.93
2018-10-17T07:12:37.993Z,95.21
2018-10-17T07:13:37.991Z,95.17
2018-10-17T07:14:37.973Z,94.02
2018-10-17T07:15:38.072Z,93.82
2018-10-17T07:16:37.955Z,93.59
2018-10-17T07:17:37.939Z,92.14
2018-10-17T07:18:37.935Z,91.38
2018-10-17T07:19:37.928Z,91.76
2018-10-17T07:20:37.908Z,92.24
2018-10-17T07:21:37.900Z,92.19
2018-10-17T07:22:37.889Z,92.00
2018-10-17T07:23:37.881Z,92.48
2018-10-17T07:24:37.870Z,92.96
2018-10-17T07:25:37.858Z,93.15
2018-10-17T07:26:37.849Z,92.63
2018-10-17T07:27:37.835Z,92.00
2018-10-17T07:28:37.877Z,92.77
2018-10-17T07:29:38.031Z,92.29
2018-10-17T07:30:37.807Z,92.58
2018-10-17T07:31:37.799Z,93.15
2018-10-17T07:32:37.785Z,92.82
2018-10-17T07:33:37.776Z,91.66
2018-10-17T07:34:37.765Z,89.98
2018-10-17T07:35:37.762Z,88.54
2018-10-17T07:36:37.743Z,87.24
2018-10-17T07:37:37.737Z,84.50
2018-10-17T07:38:37.724Z,82.81
2018-10-17T07:39:37.714Z,82.42
2018-10-17T07:40:37.704Z,80.50
2018-10-17T07:41:37.695Z,78.75
2018-10-17T07:42:37.685Z,77.40
2018-10-17T07:43:37.685Z,76.86
2018-10-17T07:44:37.670Z,75.32
2018-10-17T07:45:37.678Z,73.68
2018-10-17T07:46:37.650Z,72.75
2018-10-17T07:47:37.644Z,71.38
2018-10-17T07:48:37.637Z,69.35
2018-10-17T07:49:37.632Z,68.23
2018-10-17T07:50:37.619Z,67.27
2018-10-17T07:51:37.613Z,66.24
2018-10-17T07:52:37.607Z,64.79
2018-10-17T07:53:37.690Z,65.27
2018-10-17T07:54:37.587Z,65.17
2018-10-17T07:55:37.583Z,64.31
2018-10-17T07:56:37.575Z,63.47
2018-10-17T07:57:37.580Z,63.18
2018-10-17T07:58:37.567Z,63.28
2018-10-17T07:59:37.571Z,62.89
2018-10-17T08:00:37.546Z,62.63
2018-10-17T08:01:37.536Z,60.44
2018-10-17T08:02:37.538Z,62.28
2018-10-17T08:03:37.528Z,62.66
2018-10-17T08:04:37.528Z,64.47
2018-10-17T08:05:37.530Z,64.59
2018-10-17T08:06:37.549Z,65.88
2018-10-17T08:07:37.505Z,67.33
2018-10-17T08:08:37.496Z,67.07
2018-10-17T08:09:37.490Z,65.95
2018-10-17T08:10:37.492Z,64.11
2018-10-17T08:11:37.495Z,64.92
2018-10-17T08:12:37.486Z,68.74
2018-10-17T08:13:37.467Z,69.03
2018-10-17T08:14:37.464Z,68.55
2018-10-17T08:15:37.458Z,68.39
2018-10-17T08:16:37.455Z,67.75
2018-10-17T08:17:37.449Z,67.01
2018-10-17T08:18:37.446Z,66.33
2018-10-17T08:19:37.434Z,64.72
2018-10-17T08:20:37.428Z,62.98
2018-10-17T08:21:37.425Z,62.34
2018-10-17T08:22:37.414Z,61.02
2018-10-17T08:23:37.411Z,59.86
2018-10-17T08:24:37.406Z,60.60
2018-10-17T08:25:37.399Z,60.76
2018-10-17T08:26:37.395Z,63.98
2018-10-17T08:27:37.477Z,64.86
2018-10-17T08:28:37.384Z,66.78
2018-10-17T08:29:37.378Z,66.49
2018-10-17T08:30:37.372Z,64.98
2018-10-17T08:31:37.373Z,63.18
2018-10-17T08:32:37.362Z,62.79
2018-10-17T08:33:37.358Z,62.37
2018-10-17T08:34:37.356Z,61.11
2018-10-17T08:35:37.477Z,60.66
2018-10-17T08:36:37.476Z,60.17
2018-10-17T08:37:37.912Z,58.95
2018-10-17T08:38:37.332Z,58.98
2018-10-17T08:39:37.328Z,58.37
2018-10-17T08:40:37.325Z,59.98
2018-10-17T08:41:37.317Z,60.17
2018-10-17T08:42:37.311Z,60.01
2018-10-17T08:43:37.308Z,57.94
2018-10-17T08:44:37.305Z,57.09
2018-10-17T08:45:37.298Z,56.90
2018-10-17T08:46:37.293Z,56.51
2018-10-17T08:47:37.290Z,55.52
2018-10-17T08:48:37.293Z,55.22
2018-10-17T08:49:37.284Z,56.16
2018-10-17T08:50:37.334Z,56.00
2018-10-17T08:51:37.273Z,56.16
2018-10-17T08:52:37.268Z,56.00
2018-10-17T08:53:37.264Z,56.20
2018-10-17T08:54:37.259Z,56.29
2018-10-17T08:55:37.255Z,55.35
2018-10-17T08:56:37.252Z,54.58
2018-10-17T08:57:37.252Z,53.73
2018-10-17T08:58:37.243Z,53.56
2018-10-17T08:59:37.244Z,53.37
2018-10-17T09:00:37.242Z,52.13
2018-10-17T09:01:37.233Z,51.84
2018-10-17T09:02:37.232Z,51.45
2018-10-17T09:03:37.228Z,51.06
2018-10-17T09:04:37.225Z,51.55
2018-10-17T09:05:37.223Z,51.67
2018-10-17T09:06:37.224Z,51.77
2018-10-17T09:07:37.242Z,50.89
2018-10-17T09:08:37.218Z,51.28
2018-10-17T09:09:37.210Z,50.41
2018-10-17T09:10:37.207Z,49.82
2018-10-17T09:11:37.216Z,49.66
2018-10-17T09:12:37.201Z,49.27
2018-10-17T09:13:37.257Z,49.58
2018-10-17T09:14:37.194Z,48.63
2018-10-17T09:15:38.542Z,47.76
2018-10-17T09:16:37.319Z,47.30
2018-10-17T09:17:37.185Z,46.71
2018-10-17T09:18:37.185Z,47.10
2018-10-17T09:19:37.364Z,46.25
2018-10-17T09:20:37.577Z,46.32
2018-10-17T09:21:37.561Z,46.69
2018-10-17T09:22:37.295Z,47.88
2018-10-17T09:23:37.183Z,49.24
2018-10-17T09:24:37.180Z,50.04
2018-10-17T09:25:37.208Z,49.07
2018-10-17T09:26:37.175Z,49.19
2018-10-17T09:27:37.172Z,48.03
2018-10-17T09:28:37.165Z,47.93
2018-10-17T09:29:37.160Z,47.76
2018-10-17T09:30:37.241Z,48.54
2018-10-17T09:31:37.160Z,49.22
2018-10-17T09:32:37.158Z,47.56
2018-10-17T09:33:37.152Z,47.30
2018-10-17T09:34:37.148Z,46.69
2018-10-17T09:35:37.196Z,46.23
2018-10-17T09:36:37.148Z,46.15
2018-10-17T09:37:37.146Z,46.34
2018-10-17T09:38:37.149Z,45.47
2018-10-17T09:39:37.142Z,45.37
2018-10-17T09:40:37.136Z,45.45
2018-10-17T09:41:37.137Z,46.05
2018-10-17T09:42:37.133Z,46.17
2018-10-17T09:43:37.131Z,45.29
2018-10-17T09:44:37.147Z,45.29
2018-10-17T09:45:37.127Z,44.90
2018-10-17T09:46:37.128Z,45.10
2018-10-17T09:47:37.125Z,44.54
2018-10-17T09:48:37.120Z,44.64
2018-10-17T09:49:37.119Z,44.56
2018-10-17T09:50:37.117Z,43.98
2018-10-17T09:51:37.113Z,43.66
2018-10-17T09:52:37.114Z,43.68
2018-10-17T09:53:37.115Z,44.38
2018-10-17T09:54:37.108Z,43.44
2018-10-17T09:55:37.108Z,44.81
2018-10-17T09:56:37.106Z,44.83
2018-10-17T09:57:37.105Z,44.64
2018-10-17T09:58:37.106Z,44.73
2018-10-17T09:59:37.103Z,44.56
2018-10-17T10:00:37.099Z,43.98
2018-10-17T10:01:37.096Z,43.51
2018-10-17T10:02:37.098Z,43.22
2018-10-17T10:03:37.102Z,43.49
2018-10-17T10:04:37.088Z,43.12
2018-10-17T10:05:37.103Z,43.64
2018-10-17T10:06:37.093Z,44.89
2018-10-17T10:07:37.084Z,45.10
2018-10-17T10:08:37.096Z,46.27
2018-10-17T10:09:37.079Z,44.54
2018-10-17T10:10:37.082Z,44.93
2018-10-17T10:11:37.081Z,44.27
2018-10-17T10:12:37.075Z,43.80
2018-10-17T10:13:37.075Z,43.22
2018-10-17T10:14:37.071Z,42.63
2018-10-17T10:15:37.069Z,43.62
2018-10-17T10:16:37.065Z,44.42
2018-10-17T10:17:37.139Z,44.23
2018-10-17T10:18:37.063Z,44.62
2018-10-17T10:19:37.066Z,44.71
2018-10-17T10:20:37.057Z,44.79
2018-10-17T10:21:37.057Z,45.29
2018-10-17T10:22:37.050Z,45.00
2018-10-17T10:23:37.130Z,44.62
2018-10-17T10:24:37.101Z,44.62
2018-10-17T10:25:37.045Z,44.79
2018-10-17T10:26:37.045Z,45.28
2018-10-17T10:27:37.038Z,46.17
2018-10-17T10:29:37.045Z,44.81
2018-10-17T10:30:37.032Z,45.22
2018-10-17T10:31:37.029Z,44.73
2018-10-17T10:32:37.024Z,43.37
2018-10-17T10:33:37.073Z,43.76
2018-10-17T10:34:37.016Z,43.66
2018-10-17T10:35:37.014Z,44.24
2018-10-17T10:36:37.008Z,44.13
2018-10-17T10:37:37.004Z,44.79
2018-10-17T10:38:37.003Z,44.55
2018-10-17T10:39:36.999Z,47.40
2018-10-17T10:40:37.066Z,48.83
2018-10-17T10:41:36.990Z,49.34
2018-10-17T10:42:36.989Z,48.78
2018-10-17T10:43:36.994Z,47.93
2018-10-17T10:44:36.981Z,47.86
2018-10-17T10:45:37.069Z,47.20
2018-10-17T10:46:36.973Z,46.15
2018-10-17T10:47:36.970Z,46.15
2018-10-17T10:48:36.968Z,46.08
2018-10-17T10:49:36.960Z,46.08
2018-10-17T10:50:36.962Z,46.08
2018-10-17T10:51:37.015Z,45.10
2018-10-17T10:52:36.951Z,44.64
2018-10-17T10:53:36.948Z,44.81
2018-10-17T10:54:36.943Z,44.90
2018-10-17T10:55:36.942Z,44.71
2018-10-17T10:56:36.936Z,44.71
2018-10-17T10:57:36.938Z,44.32
2018-10-17T10:58:37.048Z,44.42
2018-10-17T10:59:37.032Z,44.59
2018-10-17T11:00:36.920Z,45.15
2018-10-17T11:01:36.917Z,46.50
2018-10-17T11:02:36.917Z,46.59
2018-10-17T11:03:36.908Z,46.11
2018-10-17T11:04:36.940Z,46.94
2018-10-17T11:05:37.122Z,47.32
2018-10-17T11:06:36.899Z,47.61
2018-10-17T11:07:36.892Z,47.34
2018-10-17T11:08:36.891Z,46.30
2018-10-17T11:09:36.881Z,46.11
2018-10-17T11:10:36.878Z,46.03
2018-10-17T11:11:36.879Z,46.15
2018-10-17T11:12:36.871Z,45.95
2018-10-17T11:13:36.873Z,45.04
2018-10-17T11:14:37.083Z,46.20
2018-10-17T11:15:36.860Z,46.23
2018-10-17T11:16:36.857Z,46.81
2018-10-17T11:17:36.847Z,46.03
2018-10-17T11:18:36.849Z,46.13
2018-10-17T11:19:37.054Z,44.94
2018-10-17T11:20:36.835Z,45.04
2018-10-17T11:21:36.835Z,46.20
2018-10-17T11:22:36.833Z,46.40
2018-10-17T11:23:36.822Z,46.11
2018-10-17T11:24:36.819Z,45.06
2018-10-17T11:25:36.815Z,44.48
2018-10-17T11:26:36.824Z,44.69
2018-10-17T11:27:36.807Z,44.89
2018-10-17T11:28:36.799Z,44.49
2018-10-17T11:29:36.796Z,44.62
2018-10-17T11:30:36.792Z,43.74
2018-10-17T11:31:36.830Z,44.23
2018-10-17T11:32:37.098Z,43.05
2018-10-17T11:33:36.775Z,43.44
2018-10-17T11:34:36.771Z,43.25
2018-10-17T11:35:36.774Z,43.44
2018-10-17T11:36:36.764Z,43.71
2018-10-17T11:37:36.852Z,44.16
2018-10-17T11:38:36.760Z,44.35
2018-10-17T11:39:36.749Z,44.62
2018-10-17T11:40:36.857Z,45.04
2018-10-17T11:41:36.796Z,45.09
2018-10-17T11:42:36.732Z,46.52
2018-10-17T11:43:36.727Z,47.20
2018-10-17T11:44:36.729Z,47.20
2018-10-17T11:45:36.723Z,46.55
2018-10-17T11:46:36.714Z,46.55
2018-10-17T11:47:36.772Z,46.64
2018-10-17T11:48:36.701Z,46.15
2018-10-17T11:49:36.693Z,46.45
2018-10-17T11:50:36.743Z,47.15
2018-10-17T11:51:36.694Z,46.18
2018-10-17T11:52:36.683Z,45.28
2018-10-17T11:53:36.681Z,46.06
2018-10-17T11:54:36.670Z,46.72
2018-10-17T11:55:36.660Z,46.45
2018-10-17T11:56:36.655Z,45.97
2018-10-17T11:57:36.648Z,46.01
2018-10-17T11:58:36.640Z,46.01
2018-10-17T11:59:36.681Z,46.78
2018-10-17T12:00:36.631Z,46.69
2018-10-17T12:01:36.626Z,46.11
2018-10-17T12:02:36.620Z,44.48
2018-10-17T12:03:36.830Z,44.67
2018-10-17T12:04:36.797Z,44.86
2018-10-17T12:05:37.051Z,44.94
2018-10-17T12:06:36.681Z,45.04
2018-10-17T12:07:36.590Z,46.01
2018-10-17T12:08:36.588Z,45.79
2018-10-17T12:09:36.578Z,46.15
2018-10-17T12:10:36.593Z,46.74
2018-10-17T12:11:36.598Z,46.45
2018-10-17T12:12:36.560Z,45.65
2018-10-17T12:13:36.556Z,45.87
2018-10-17T12:14:36.549Z,46.06
2018-10-17T12:15:36.543Z,45.18
2018-10-17T12:16:36.533Z,45.77
2018-10-17T12:17:36.526Z,44.79
2018-10-17T12:18:36.519Z,44.51
2018-10-17T12:19:36.583Z,44.60
2018-10-17T12:20:36.508Z,44.51
2018-10-17T12:21:36.585Z,44.70
2018-10-17T12:22:36.497Z,44.79
2018-10-17T12:23:36.489Z,45.28
2018-10-17T12:24:36.479Z,44.89
2018-10-17T12:25:36.479Z,44.79
2018-10-17T12:26:36.471Z,44.99
2018-10-17T12:27:36.476Z,45.07
2018-10-17T12:28:36.505Z,45.26
2018-10-17T12:29:36.446Z,46.15
2018-10-17T12:30:36.440Z,45.87
2018-10-17T12:31:36.439Z,46.06
2018-10-17T12:32:36.426Z,46.04
2018-10-17T12:33:36.414Z,46.14
2018-10-17T12:34:36.409Z,45.94
2018-10-17T12:35:36.401Z,46.06
2018-10-17T12:36:36.396Z,46.74
2018-10-17T12:37:36.391Z,47.03
2018-10-17T12:38:36.381Z,47.20
2018-10-17T12:39:36.412Z,46.91
2018-10-17T12:40:36.586Z,46.62
2018-10-17T12:41:36.423Z,45.97
2018-10-17T12:42:36.363Z,46.14
2018-10-17T12:43:36.348Z,45.94
2018-10-17T12:44:36.338Z,45.92
2018-10-17T12:45:36.370Z,46.86
2018-10-17T12:46:36.326Z,47.81
2018-10-17T12:47:36.325Z,48.61
2018-10-17T12:48:36.318Z,48.61
2018-10-17T12:49:36.347Z,49.49
2018-10-17T12:50:36.296Z,50.48
2018-10-17T12:51:36.292Z,49.32
2018-10-17T12:52:36.435Z,49.02
2018-10-17T12:53:36.278Z,49.22